Time;durP1;ratioP1;P1;durP2;ratioP2;P2;SDS_P1;SDS_P2;PMS_P1;PMS_P2;Temp;Humidity;BMP_temperature;BMP_pressure;BME280_temperature;BME280_humidity;BME280_pressure;Samples;Min_cycle;Max_cycle;Signal;HPM_P1;HPM_P2
2021/12/02 00:00:43;;;;;;;0.50;0.50;;;;;;;6.36;76.99;97158.63;5022836;28;20063;-70
2021/12/02 00:03:09;;;;;;;0.40;0.40;;;;;;;6.43;76.16;97161.00;5027428;28;20022;-70
2021/12/02 00:05:35;;;;;;;0.40;0.40;;;;;;;6.39;76.19;97159.41;5031684;28;20200;-70
2021/12/02 00:08:00;;;;;;;0.60;0.60;;;;;;;6.37;77.06;97161.16;5031414;28;20032;-70
2021/12/02 00:10:31;;;;;;;0.40;0.40;;;;;;;6.28;76.75;97161.41;5031161;28;20032;-70
2021/12/02 00:12:58;;;;;;;0.43;0.43;;;;;;;6.17;77.34;97171.13;5031657;28;20092;-70
2021/12/02 00:15:29;;;;;;;0.60;0.55;;;;;;;6.05;77.39;97172.31;5031597;28;20022;-70
2021/12/02 00:21:03;;;;;;;0.60;0.60;;;;;;;6.15;77.07;97160.91;5031494;28;20390;-70
2021/12/02 00:21:04;;;;;;;0.47;0.47;;;;;;;6.08;77.82;97168.81;5028089;28;20096;-70
2021/12/02 00:23:54;;;;;;;0.50;0.50;;;;;;;6.03;78.65;97165.50;5031486;28;20033;-70
2021/12/02 00:26:21;;;;;;;0.55;0.55;;;;;;;5.92;79.02;97163.22;5031419;28;20474;-70
2021/12/02 00:28:55;;;;;;;0.50;0.50;;;;;;;6.00;78.65;97171.59;5030620;28;20109;-70
2021/12/02 00:31:22;;;;;;;7.40;0.88;;;;;;;5.84;79.56;97165.94;5021219;28;20045;-70
2021/12/02 00:33:54;;;;;;;0.50;0.50;;;;;;;6.02;78.25;97166.41;5034903;28;20032;-70
2021/12/02 00:36:26;;;;;;;0.50;0.50;;;;;;;5.79;78.99;97167.78;5033728;28;20375;-70
2021/12/02 00:38:52;;;;;;;0.40;0.40;;;;;;;5.90;79.55;97165.81;5034870;28;20021;-70
2021/12/02 00:41:22;;;;;;;0.40;0.40;;;;;;;5.92;78.54;97169.19;5034626;28;20033;-70
2021/12/02 00:43:49;;;;;;;0.40;0.40;;;;;;;5.97;77.92;97168.25;5034759;28;20061;-70
2021/12/02 00:46:18;;;;;;;0.50;0.50;;;;;;;5.85;79.62;97167.66;5034635;28;20489;-70
2021/12/02 00:48:45;;;;;;;0.57;0.57;;;;;;;5.97;79.92;97170.81;5034704;28;20022;-70
2021/12/02 00:51:11;;;;;;;0.55;0.55;;;;;;;5.98;79.50;97173.34;5034364;28;20021;-70
2021/12/02 00:53:39;;;;;;;0.50;0.50;;;;;;;6.02;79.39;97179.25;5034692;28;20371;-70
2021/12/02 00:56:09;;;;;;;0.40;0.40;;;;;;;5.91;79.52;97185.50;5034397;28;20078;-70
2021/12/02 00:58:35;;;;;;;0.40;0.40;;;;;;;5.88;79.24;97192.41;5034625;28;20037;-70
2021/12/02 05:15:28;;;;;;;0.60;0.60;;;;;;;4.75;85.98;97170.19;6100101;23;20186;31
2021/12/02 05:17:53;;;;;;;0.80;0.80;;;;;;;4.79;86.32;97176.09;4915885;29;20731;-67
2021/12/02 05:20:19;;;;;;;0.50;0.50;;;;;;;4.84;85.87;97179.41;4917621;29;20062;-67
2021/12/02 05:22:44;;;;;;;0.80;0.80;;;;;;;4.59;86.08;97185.06;4916785;29;20473;-67
2021/12/02 05:25:09;;;;;;;0.40;0.40;;;;;;;4.62;87.02;97184.13;4917739;29;20024;-67
2021/12/02 05:30:03;;;;;;;0.57;0.57;;;;;;;4.82;86.40;97176.88;4941486;29;20042;-69
2021/12/02 05:32:30;;;;;;;0.40;0.40;;;;;;;4.73;86.29;97182.19;4947734;28;20503;-69
2021/12/02 05:34:57;;;;;;;0.50;0.50;;;;;;;4.71;85.67;97181.38;4955778;28;20400;-69
2021/12/02 05:37:22;;;;;;;0.50;0.50;;;;;;;4.73;86.05;97179.63;4955687;28;20096;-69
2021/12/02 05:39:47;;;;;;;0.50;0.50;;;;;;;4.66;86.20;97183.19;4955598;28;20501;-69
2021/12/02 05:42:13;;;;;;;0.50;0.50;;;;;;;4.65;86.24;97189.22;4955526;28;20366;-69
2021/12/02 05:44:40;;;;;;;1.35;0.95;;;;;;;4.54;86.66;97175.75;4955628;28;20023;-69
2021/12/02 05:47:05;;;;;;;0.50;0.50;;;;;;;4.59;87.41;97173.94;4955474;28;20035;-70
2021/12/02 05:49:31;;;;;;;1.08;0.70;;;;;;;4.72;85.85;97180.50;4955306;28;20404;-70
2021/12/02 05:51:56;;;;;;;0.50;0.50;;;;;;;4.62;86.53;97179.00;4955438;28;20435;-70
2021/12/02 05:54:21;;;;;;;0.50;0.50;;;;;;;4.70;86.84;97172.00;4955562;28;20380;-70
2021/12/02 05:56:47;;;;;;;0.60;0.60;;;;;;;4.76;85.80;97179.56;4955417;28;20035;-70
2021/12/02 05:59:12;;;;;;;0.40;0.40;;;;;;;4.66;85.45;97172.94;4951012;28;20046;-70
2021/12/02 06:01:41;;;;;;;0.30;0.30;;;;;;;4.68;86.26;97173.75;4946870;28;20064;-70
2021/12/02 06:04:08;;;;;;;0.40;0.40;;;;;;;4.71;85.56;97173.69;4955377;28;20086;-70
2021/12/02 06:06:33;;;;;;;2.15;0.77;;;;;;;4.68;86.04;97181.44;4955303;28;20031;-70
2021/12/02 06:08:59;;;;;;;1.60;1.50;;;;;;;4.66;85.92;97172.94;4954966;28;20085;-70
2021/12/02 06:11:24;;;;;;;0.50;0.50;;;;;;;4.68;86.15;97183.16;4955224;28;20544;-70
2021/12/02 06:13:49;;;;;;;0.55;0.55;;;;;;;4.82;86.77;97176.03;4955040;28;20114;-70
2021/12/02 06:16:15;;;;;;;0.57;0.57;;;;;;;4.92;86.68;97172.38;4954962;28;20131;-70
2021/12/02 06:18:40;;;;;;;0.55;0.55;;;;;;;4.87;85.28;97169.91;4954812;28;20081;-70
2021/12/02 06:21:06;;;;;;;0.50;0.50;;;;;;;5.00;85.08;97179.94;4954845;28;20481;-70
2021/12/02 06:23:31;;;;;;;0.73;0.73;;;;;;;4.78;86.43;97179.53;4954897;28;20400;-70
2021/12/02 06:25:57;;;;;;;0.63;0.63;;;;;;;4.81;86.01;97177.75;4954781;28;20550;-71
2021/12/02 06:28:22;;;;;;;0.40;0.40;;;;;;;4.73;86.53;97182.19;4954268;28;20035;-70
2021/12/02 06:30:47;;;;;;;1.98;0.80;;;;;;;4.74;87.13;97177.91;4945367;28;20027;-70
2021/12/02 06:33:13;;;;;;;0.60;0.60;;;;;;;4.72;86.90;97172.81;4950946;29;20031;-70
2021/12/02 06:35:40;;;;;;;0.57;0.57;;;;;;;4.64;87.20;97177.25;4954708;28;20023;-70
2021/12/02 06:38:05;;;;;;;0.80;0.80;;;;;;;4.55;87.12;97182.59;4954649;28;20110;-70
2021/12/02 06:40:32;;;;;;;0.60;0.60;;;;;;;4.61;87.77;97177.31;4954401;28;20480;-70
2021/12/02 06:42:57;;;;;;;0.57;0.57;;;;;;;4.65;87.90;97176.38;4954572;28;20416;-70
2021/12/02 06:45:22;;;;;;;3.42;0.70;;;;;;;4.56;87.56;97181.69;4954404;28;20023;-70
2021/12/02 06:47:50;;;;;;;0.60;0.60;;;;;;;4.54;87.20;97173.19;4954319;28;20511;-70
2021/12/02 06:50:19;;;;;;;0.82;0.82;;;;;;;4.46;86.77;97172.50;4954374;28;20031;-70
2021/12/02 06:52:49;;;;;;;1.05;1.05;;;;;;;4.52;87.14;97177.50;4954470;28;20131;-70
2021/12/02 06:55:15;;;;;;;0.50;0.50;;;;;;;4.61;86.98;97177.31;4954415;28;20062;-70
2021/12/02 06:57:41;;;;;;;0.50;0.50;;;;;;;4.57;87.07;97166.28;4954301;28;20019;-70
2021/12/02 07:00:10;;;;;;;0.60;0.60;;;;;;;4.69;87.08;97185.72;4949558;28;20043;-70
2021/12/02 07:02:36;;;;;;;0.50;0.50;;;;;;;4.65;85.40;97186.66;4946172;28;20552;-70
2021/12/02 07:05:03;;;;;;;0.55;0.55;;;;;;;4.64;85.89;97197.75;4954245;28;20436;-70
2021/12/02 07:07:33;;;;;;;0.50;0.50;;;;;;;4.49;85.35;97198.06;4954100;28;20090;-70
2021/12/02 07:10:02;;;;;;;0.95;0.95;;;;;;;4.48;86.43;97193.81;4953927;28;20552;-70
2021/12/02 07:12:33;;;;;;;0.95;0.95;;;;;;;4.37;86.37;97184.63;4953993;28;20046;-70
2021/12/02 07:15:05;;;;;;;0.60;0.60;;;;;;;4.44;86.75;97189.63;4954280;28;20054;-70
2021/12/02 07:17:30;;;;;;;0.60;0.60;;;;;;;4.25;86.47;97195.09;4954054;28;20524;-70
2021/12/02 07:19:55;;;;;;;4.57;0.65;;;;;;;4.30;86.59;97193.31;4953803;28;20110;-70
2021/12/02 07:22:21;;;;;;;0.50;0.50;;;;;;;4.33;86.32;97193.25;4954013;28;20031;-70
2021/12/02 07:24:46;;;;;;;0.50;0.50;;;;;;;4.41;86.49;97189.69;4953943;28;20214;-70
2021/12/02 07:27:11;;;;;;;0.70;0.70;;;;;;;4.52;86.39;97187.75;4952807;29;20031;-70
2021/12/02 07:29:39;;;;;;;0.88;0.88;;;;;;;4.45;86.27;97196.44;4949234;28;20027;-70
2021/12/02 07:32:04;;;;;;;0.50;0.50;;;;;;;4.55;85.28;97203.09;4946013;28;20027;-70
2021/12/02 07:34:34;;;;;;;0.70;0.70;;;;;;;4.50;85.79;97200.63;4952853;29;20026;-70
2021/12/02 07:37:01;;;;;;;0.60;0.60;;;;;;;4.55;85.23;97197.97;4953868;28;20027;-70
2021/12/02 07:39:26;;;;;;;0.82;0.77;;;;;;;4.75;84.98;97195.84;4953623;28;20496;-70
2021/12/02 07:41:52;;;;;;;0.70;0.70;;;;;;;5.00;84.12;97200.47;4957182;28;20027;-70
2021/12/02 07:44:18;;;;;;;0.63;0.63;;;;;;;5.04;83.31;97196.97;4957766;28;20198;-70
2021/12/02 07:46:44;;;;;;;0.63;0.63;;;;;;;5.12;82.68;97197.63;4958084;28;20416;-70
2021/12/02 07:49:12;;;;;;;0.45;0.45;;;;;;;5.07;82.25;97197.72;4957520;28;20086;-70
2021/12/02 07:51:42;;;;;;;0.70;0.70;;;;;;;5.21;82.14;97205.13;4957569;28;20035;-70
2021/12/02 07:54:07;;;;;;;6.53;1.58;;;;;;;5.18;81.95;97206.94;4957685;28;20030;-70
2021/12/02 07:56:33;;;;;;;0.77;0.77;;;;;;;5.49;81.04;97210.47;4957350;28;20432;-70
2021/12/02 07:58:59;;;;;;;0.90;0.90;;;;;;;5.89;78.81;97205.22;4955166;28;20389;-70
2021/12/02 08:01:24;;;;;;;1.13;1.02;;;;;;;5.73;79.26;97209.06;4947262;29;20024;-70
2021/12/02 08:03:51;;;;;;;0.68;0.68;;;;;;;5.28;80.43;97206.69;4957400;28;20024;-70
2021/12/02 08:06:17;;;;;;;0.98;0.98;;;;;;;5.45;80.44;97202.88;4957276;28;20035;-70
2021/12/02 08:08:45;;;;;;;0.65;0.65;;;;;;;5.40;80.89;97201.25;4957238;28;20027;-70
2021/12/02 08:11:11;;;;;;;0.40;0.40;;;;;;;5.44;81.14;97206.34;4957148;28;20037;-70
2021/12/02 08:13:37;;;;;;;0.40;0.40;;;;;;;5.46;81.63;97207.13;4957351;28;20055;-70
2021/12/02 08:16:05;;;;;;;0.50;0.50;;;;;;;5.54;81.30;97207.81;4957213;28;20476;-70
2021/12/02 08:18:31;;;;;;;1.35;0.77;;;;;;;5.45;80.84;97213.16;4957115;28;20031;-70
2021/12/02 08:20:58;;;;;;;0.40;0.40;;;;;;;5.63;82.18;97217.88;4956982;28;20039;-70
2021/12/02 08:23:24;;;;;;;0.57;0.57;;;;;;;5.73;80.38;97209.06;4956866;28;20035;-70
2021/12/02 08:25:49;;;;;;;0.50;0.50;;;;;;;5.78;79.58;97212.38;4957194;28;20031;-70
2021/12/02 08:28:15;;;;;;;0.50;0.50;;;;;;;5.74;80.67;97204.75;4956817;28;20510;-70
2021/12/02 08:30:40;;;;;;;0.40;0.40;;;;;;;6.14;79.87;97199.50;4944687;28;20683;-70
2021/12/02 08:33:08;;;;;;;1.17;0.93;;;;;;;7.72;73.26;97206.09;4918624;29;20028;-69
2021/12/02 08:35:34;;;;;;;0.50;0.50;;;;;;;8.07;71.46;97204.09;4918700;29;20067;-69
2021/12/02 08:38:05;;;;;;;0.50;0.50;;;;;;;7.90;70.64;97213.22;4918582;29;20394;-69
2021/12/02 08:40:35;;;;;;;0.43;0.43;;;;;;;7.04;73.08;97209.03;4868648;28;20074;-69
2021/12/02 08:43:06;;;;;;;0.52;0.52;;;;;;;6.53;75.27;97222.50;4918578;29;20564;-69
2021/12/02 08:45:33;;;;;;;0.40;0.40;;;;;;;5.97;77.16;97217.09;4918561;29;20028;-69
2021/12/02 08:47:59;;;;;;;0.40;0.40;;;;;;;5.83;78.24;97215.66;4918467;29;20035;-69
2021/12/02 08:50:25;;;;;;;0.50;0.50;;;;;;;5.75;78.55;97211.59;4918309;29;20027;-69
2021/12/02 08:52:52;;;;;;;0.45;0.45;;;;;;;5.71;78.86;97215.13;4917668;29;20103;-69
2021/12/02 08:55:20;;;;;;;1.00;0.70;;;;;;;5.66;78.47;97216.09;4918371;29;20028;-69
2021/12/02 08:57:47;;;;;;;0.50;0.50;;;;;;;5.66;78.61;97204.97;4918442;29;20107;-70
2021/12/02 09:00:16;;;;;;;0.50;0.50;;;;;;;5.71;78.34;97205.69;4917989;29;20035;-74
2021/12/02 09:02:41;;;;;;;0.68;0.68;;;;;;;5.62;78.88;97206.75;4918267;29;20135;-69
2021/12/02 09:05:07;;;;;;;1.20;0.75;;;;;;;5.33;78.71;97211.72;4918007;29;20056;-69
2021/12/02 09:07:33;;;;;;;0.40;0.40;;;;;;;5.26;79.90;97218.69;4918094;29;20048;-70
2021/12/02 09:09:59;;;;;;;0.45;0.45;;;;;;;5.37;79.59;97213.34;4918048;29;20117;-70
2021/12/02 09:12:24;;;;;;;0.50;0.50;;;;;;;5.18;79.33;97210.34;4918195;29;20496;-70
2021/12/02 09:14:51;;;;;;;1.13;0.75;;;;;;;5.12;79.79;97216.44;4918102;29;20604;-70
2021/12/02 09:17:16;;;;;;;0.40;0.40;;;;;;;5.24;79.72;97214.50;4918126;29;20111;-70
2021/12/02 09:19:42;;;;;;;0.47;0.47;;;;;;;5.32;79.35;97208.31;4917605;29;20103;-70
2021/12/02 09:22:07;;;;;;;0.60;0.60;;;;;;;5.37;79.23;97211.63;4917971;29;20031;-70
2021/12/02 09:24:33;;;;;;;1.13;0.75;;;;;;;5.46;78.54;97210.53;4917775;29;20028;-70
2021/12/02 09:26:58;;;;;;;0.52;0.52;;;;;;;5.50;78.16;97211.31;4918093;29;20115;-70
2021/12/02 09:29:24;;;;;;;0.40;0.40;;;;;;;5.71;78.08;97210.00;4917489;29;20028;-70
2021/12/02 09:31:51;;;;;;;0.70;0.70;;;;;;;5.69;77.07;97212.59;4821348;28;20043;-70
2021/12/02 09:34:16;;;;;;;0.50;0.50;;;;;;;5.81;76.56;97216.59;4936691;29;20047;-70
2021/12/02 09:36:42;;;;;;;0.40;0.40;;;;;;;5.69;77.35;97217.72;4936624;29;20059;-70
2021/12/02 09:39:11;;;;;;;0.40;0.40;;;;;;;5.53;77.35;97217.25;4936487;29;20042;-70
2021/12/02 09:41:37;;;;;;;0.82;0.82;;;;;;;5.46;77.32;97209.69;4936588;29;20111;-70
2021/12/02 09:44:03;;;;;;;0.47;0.47;;;;;;;5.40;77.59;97219.22;4936476;29;20035;-70
2021/12/02 09:46:29;;;;;;;0.50;0.50;;;;;;;5.38;78.10;97217.59;4936396;29;20459;-70
2021/12/02 09:48:56;;;;;;;4.55;0.95;;;;;;;5.64;79.04;97215.25;4889615;28;20035;-70
2021/12/02 09:51:25;;;;;;;2.50;1.08;;;;;;;5.67;78.54;97211.78;4889909;28;20070;-70
2021/12/02 09:54:01;;;;;;;0.50;0.50;;;;;;;5.48;78.42;97216.50;4936505;29;20020;-70
2021/12/02 09:56:31;;;;;;;0.40;0.40;;;;;;;5.34;79.42;97215.97;4936440;29;20031;-70
2021/12/02 09:59:03;;;;;;;0.50;0.50;;;;;;;5.40;79.61;97216.66;4934194;29;20382;-70
2021/12/02 10:01:40;;;;;;;0.50;0.50;;;;;;;5.39;79.97;97216.72;4926611;29;20103;-70
2021/12/02 10:04:07;;;;;;;0.43;0.43;;;;;;;5.46;80.33;97214.84;4935319;29;20107;-70
2021/12/02 10:06:33;;;;;;;1.25;1.15;;;;;;;5.51;81.13;97213.00;4936173;29;20098;-70
2021/12/02 10:09:13;;;;;;;0.50;0.50;;;;;;;5.56;83.12;97213.75;4935847;29;20110;-70
2021/12/02 10:14:16;;;;;;;0.40;0.40;;;;;;;5.45;84.35;97211.44;4936327;29;20118;-70
2021/12/02 10:16:44;;;;;;;0.50;0.50;;;;;;;5.29;84.63;97221.22;4935984;29;20374;-70
2021/12/02 10:19:12;;;;;;;1.10;0.70;;;;;;;4.63;85.05;97260.19;4935520;29;20028;-70
2021/12/02 10:22:09;;;;;;;0.40;0.40;;;;;;;3.50;89.81;97269.78;4935856;29;20047;-70
2021/12/02 10:24:43;;;;;;;0.95;0.95;;;;;;;3.15;93.28;97278.81;4935584;29;20495;-70
2021/12/02 10:27:08;;;;;;;0.88;0.88;;;;;;;2.99;94.35;97282.41;4935877;29;20458;-70
2021/12/02 10:29:37;;;;;;;1.45;1.35;;;;;;;2.80;95.70;97271.53;4930986;29;20115;-70
2021/12/02 10:32:16;;;;;;;2.20;1.80;;;;;;;2.85;95.97;97262.09;4921521;29;20032;-70
2021/12/02 10:35:06;;;;;;;1.98;1.42;;;;;;;2.96;96.51;97267.09;4916669;29;20102;-70
2021/12/02 10:37:35;;;;;;;1.40;1.40;;;;;;;2.77;97.42;97269.88;4916505;29;20039;-70
2021/12/02 10:40:29;;;;;;;0.60;0.60;;;;;;;2.91;97.54;97266.31;4916457;29;20034;-70
2021/12/02 10:42:54;;;;;;;1.27;1.25;;;;;;;2.93;97.37;97262.00;4912779;29;20088;-70
2021/12/02 10:45:26;;;;;;;1.05;1.05;;;;;;;2.97;97.24;97258.56;4916324;29;20036;-69
2021/12/02 10:47:54;;;;;;;1.98;1.88;;;;;;;2.93;96.46;97256.91;4916176;29;20036;-69
2021/12/02 10:50:21;;;;;;;1.75;1.65;;;;;;;3.12;97.72;97252.41;4893381;29;20514;-70
2021/12/02 10:52:47;;;;;;;7.55;1.92;;;;;;;2.96;97.90;97255.16;4916336;29;20478;-71
2021/12/02 10:55:17;;;;;;;5.28;3.47;;;;;;;3.12;97.27;97254.94;4916240;29;20030;-69
2021/12/02 10:57:51;;;;;;;2.38;2.05;;;;;;;3.11;97.75;97261.78;4916180;29;20417;-70
2021/12/02 11:00:20;;;;;;;4.93;1.55;;;;;;;3.13;97.92;97265.16;4916261;29;20028;-69
2021/12/02 11:02:52;;;;;;;0.60;0.60;;;;;;;3.31;97.68;97259.81;4916140;29;20092;-72
2021/12/02 11:08:15;;;;;;;1.75;1.58;;;;;;;3.40;97.67;97258.00;5240080;23;20052;-70
2021/12/02 11:10:49;;;;;;;7.55;1.15;;;;;;;3.33;97.52;97268.28;4945218;29;20555;-70
2021/12/02 11:13:26;;;;;;;0.95;0.95;;;;;;;3.32;98.14;97261.50;4954076;28;20042;-70
2021/12/02 11:15:52;;;;;;;3.05;0.90;;;;;;;3.45;98.20;97267.28;4953541;28;20016;-70
2021/12/02 11:18:21;;;;;;;2.05;1.95;;;;;;;3.52;98.82;97262.91;4953961;29;20035;-70
2021/12/02 11:20:50;;;;;;;1.92;1.00;;;;;;;3.68;98.29;97263.56;4962411;23;20047;-69
2021/12/02 11:23:20;;;;;;;1.13;1.13;;;;;;;3.73;97.38;97266.91;4934828;29;20503;-70
2021/12/02 11:25:52;;;;;;;3.53;2.10;;;;;;;3.64;97.72;97262.75;4934740;29;20342;-69
2021/12/02 11:28:21;;;;;;;2.28;2.08;;;;;;;3.62;98.23;97259.34;4934750;29;20023;-70
2021/12/02 11:30:48;;;;;;;0.77;0.77;;;;;;;3.67;97.90;97257.56;4934711;29;20119;-69
2021/12/02 11:33:18;;;;;;;0.65;0.65;;;;;;;3.71;97.80;97254.09;4934761;29;20388;-69
2021/12/02 11:35:44;;;;;;;0.68;0.68;;;;;;;3.70;98.30;97260.09;4934498;29;20544;-71
2021/12/02 11:38:23;;;;;;;0.82;0.82;;;;;;;3.70;97.71;97262.66;4928205;29;20036;-69
2021/12/02 11:40:57;;;;;;;1.70;1.60;;;;;;;3.73;97.44;97262.63;4934546;29;20433;-68
2021/12/02 11:43:37;;;;;;;1.20;1.20;;;;;;;3.82;97.87;97257.34;4934683;29;20087;-68
2021/12/02 11:46:06;;;;;;;0.80;0.80;;;;;;;3.75;97.89;97265.16;4934609;29;20031;-68
2021/12/02 11:48:34;;;;;;;1.75;1.65;;;;;;;3.83;97.13;97263.31;4934724;29;20027;-68
2021/12/02 11:51:02;;;;;;;1.17;1.08;;;;;;;3.89;96.76;97262.38;4934544;29;20036;-69
2021/12/02 11:53:28;;;;;;;0.60;0.60;;;;;;;3.62;96.63;97277.28;4934505;29;20032;-69
2021/12/02 11:55:57;;;;;;;0.50;0.50;;;;;;;3.38;96.88;97273.34;4934479;29;20075;-70
2021/12/02 11:58:23;;;;;;;0.50;0.50;;;;;;;3.23;96.43;97269.28;4934501;29;20032;-69
2021/12/02 12:00:49;;;;;;;0.60;0.60;;;;;;;3.21;96.87;97278.72;4934488;29;20260;-69
2021/12/02 12:03:22;;;;;;;1.08;1.02;;;;;;;3.43;97.20;97275.84;4934553;29;20106;-69
2021/12/02 12:05:57;;;;;;;0.50;0.50;;;;;;;3.41;96.73;97275.03;4934141;29;20115;-69
2021/12/02 12:08:33;;;;;;;0.50;0.50;;;;;;;3.45;96.20;97267.28;4926660;29;20032;-70
2021/12/02 12:11:24;;;;;;;0.50;0.50;;;;;;;3.51;96.30;97266.34;4934290;29;20035;-69
2021/12/02 12:13:55;;;;;;;0.40;0.40;;;;;;;3.53;95.04;97274.84;4934330;29;20107;-69
2021/12/02 12:16:26;;;;;;;0.50;0.50;;;;;;;3.58;95.74;97273.09;4934284;29;20035;-67
2021/12/02 12:18:53;;;;;;;0.60;0.60;;;;;;;3.76;96.50;97262.56;4934348;29;20038;-67
2021/12/02 12:21:33;;;;;;;6.22;3.47;;;;;;;3.81;94.86;97260.75;4934485;29;20393;-67
2021/12/02 12:24:00;;;;;;;0.60;0.60;;;;;;;3.66;94.90;97263.56;4934324;29;20028;-67
2021/12/02 12:26:35;;;;;;;0.60;0.60;;;;;;;3.85;94.19;97262.41;4934177;29;20114;-67
2021/12/02 12:29:04;;;;;;;0.60;0.60;;;;;;;3.92;93.63;97262.34;4937511;29;20083;-67
2021/12/02 12:31:50;;;;;;;0.65;0.65;;;;;;;4.12;94.58;97266.25;4937724;29;20477;-67
2021/12/02 12:34:31;;;;;;;0.70;0.70;;;;;;;4.29;93.50;97258.25;4937905;29;20111;-67
2021/12/02 12:36:58;;;;;;;0.50;0.50;;;;;;;4.32;92.62;97258.22;4937386;29;20096;-68
2021/12/02 12:39:26;;;;;;;0.50;0.50;;;;;;;4.25;93.82;97269.44;4929573;29;20344;-67
2021/12/02 12:42:11;;;;;;;1.55;1.45;;;;;;;4.27;93.06;97280.53;4937550;29;20040;-67
2021/12/02 12:44:58;;;;;;;0.80;0.80;;;;;;;4.21;92.74;97272.94;4930583;29;20043;-67
2021/12/02 12:47:45;;;;;;;0.85;0.85;;;;;;;4.11;93.04;97277.38;4937389;29;20030;-67
2021/12/02 12:50:24;;;;;;;0.50;0.50;;;;;;;3.99;94.01;97274.16;4937590;29;20036;-67
2021/12/02 12:53:18;;;;;;;1.05;0.73;;;;;;;4.16;94.12;97272.19;4937633;29;20032;-68
2021/12/02 12:55:52;;;;;;;0.60;0.60;;;;;;;4.26;93.51;97267.75;4937116;29;20513;-67
2021/12/02 12:58:20;;;;;;;0.57;0.57;;;;;;;4.17;92.77;97263.59;4937365;29;20035;-67
2021/12/02 13:00:51;;;;;;;0.90;0.88;;;;;;;4.09;92.48;97265.44;4937194;29;20111;-70
2021/12/02 13:03:26;;;;;;;1.30;1.30;;;;;;;3.96;92.66;97274.19;4937281;29;20114;-68
2021/12/02 13:05:56;;;;;;;0.60;0.60;;;;;;;3.95;92.56;97272.50;4936994;29;20418;-68
2021/12/02 13:08:26;;;;;;;0.82;0.82;;;;;;;3.98;93.03;97269.91;4928978;29;20375;-68
2021/12/02 13:10:56;;;;;;;2.50;2.40;;;;;;;4.07;93.58;97268.03;4918108;29;20088;-68
2021/12/02 13:13:26;;;;;;;2.83;1.42;;;;;;;4.13;93.29;97277.34;4918003;29;20046;-68
2021/12/02 13:15:52;;;;;;;0.65;0.65;;;;;;;4.09;91.93;97275.69;4917766;29;20430;-70
2021/12/02 13:18:32;;;;;;;3.28;3.08;;;;;;;4.20;92.01;97271.22;4917816;29;20149;-68
2021/12/02 13:21:16;;;;;;;0.85;0.85;;;;;;;4.12;92.85;97271.38;4917626;29;20036;-68
2021/12/02 13:24:03;;;;;;;0.50;0.50;;;;;;;4.14;92.62;97279.03;4917719;29;20039;-68
2021/12/02 13:26:33;;;;;;;0.60;0.60;;;;;;;4.23;92.03;97273.75;4917621;29;20500;-68
2021/12/02 13:29:09;;;;;;;1.60;0.80;;;;;;;4.20;92.69;97278.91;4917628;29;20378;-68
2021/12/02 13:31:37;;;;;;;0.60;0.60;;;;;;;4.22;92.63;97274.63;4917606;29;20028;-68
2021/12/02 13:34:08;;;;;;;0.85;0.85;;;;;;;4.31;90.89;97277.03;4917404;29;20036;-68
2021/12/02 13:36:36;;;;;;;5.35;1.23;;;;;;;4.33;90.94;97282.97;4925639;29;20078;-68
2021/12/02 13:39:12;;;;;;;2.10;1.85;;;;;;;4.41;91.68;97272.59;4928239;29;20043;-68
2021/12/02 13:41:56;;;;;;;0.63;0.63;;;;;;;4.46;90.62;97278.47;4936452;29;20024;-68
2021/12/02 13:44:28;;;;;;;0.50;0.50;;;;;;;4.58;90.67;97283.38;4936439;29;20019;-68
2021/12/02 13:47:16;;;;;;;0.70;0.70;;;;;;;4.68;90.76;97284.03;4936289;29;20082;-68
2021/12/02 13:49:49;;;;;;;0.63;0.63;;;;;;;4.53;89.73;97271.50;4936174;29;20432;-67
2021/12/02 13:52:39;;;;;;;1.27;1.25;;;;;;;4.52;90.27;97277.53;4936164;29;20497;-67
2021/12/02 13:55:12;;;;;;;0.57;0.57;;;;;;;4.75;89.07;97277.09;4936001;29;20064;-69
2021/12/02 13:57:48;;;;;;;0.50;0.50;;;;;;;4.70;89.43;97279.75;4936031;29;20102;-70
2021/12/02 14:00:26;;;;;;;0.52;0.52;;;;;;;4.49;89.71;97280.13;4935990;29;20032;-69
2021/12/02 14:03:10;;;;;;;3.00;0.65;;;;;;;4.43;90.23;97280.25;4935976;29;20034;-70
2021/12/02 14:05:39;;;;;;;0.52;0.52;;;;;;;4.22;91.60;97292.56;4935824;29;20031;-70
2021/12/02 14:08:07;;;;;;;0.90;0.90;;;;;;;3.92;91.24;97293.06;4930030;29;20051;-70
2021/12/02 14:10:34;;;;;;;0.60;0.60;;;;;;;3.70;91.59;97301.06;4933762;29;20040;-71
2021/12/02 14:13:04;;;;;;;0.50;0.50;;;;;;;3.50;91.38;97300.50;4935784;29;20430;-70
2021/12/02 14:15:32;;;;;;;0.40;0.40;;;;;;;3.43;93.44;97309.13;4935900;29;20018;-70
2021/12/02 14:18:25;;;;;;;0.55;0.55;;;;;;;3.50;92.81;97316.72;4935526;29;20122;-71
2021/12/02 14:21:04;;;;;;;0.50;0.50;;;;;;;3.45;93.23;97317.66;4933736;29;20036;-72
2021/12/02 14:23:38;;;;;;;0.50;0.50;;;;;;;3.30;91.72;97314.44;4935701;29;20031;-72
2021/12/02 14:26:29;;;;;;;0.50;0.50;;;;;;;3.39;93.04;97327.97;4935290;29;20039;-69
2021/12/02 14:29:01;;;;;;;0.60;0.60;;;;;;;3.39;94.18;97333.09;4935688;29;20030;-70
2021/12/02 14:31:30;;;;;;;1.73;1.63;;;;;;;3.55;93.56;97339.69;4949700;29;20485;-74
2021/12/02 14:33:56;;;;;;;0.50;0.50;;;;;;;3.48;93.46;97340.63;4934383;29;20035;-69
2021/12/02 14:36:24;;;;;;;0.65;0.65;;;;;;;3.55;94.85;97339.69;4935261;29;20115;-69
2021/12/02 14:39:09;;;;;;;0.68;0.68;;;;;;;3.31;93.86;97351.94;4927465;29;20036;-69
2021/12/02 14:41:41;;;;;;;0.90;0.90;;;;;;;3.41;94.86;97351.84;4935493;29;20028;-69
2021/12/02 14:44:12;;;;;;;1.05;1.05;;;;;;;3.44;95.02;97352.66;4935441;29;20512;-68
2021/12/02 14:46:39;;;;;;;0.60;0.60;;;;;;;3.37;95.22;97362.97;4935080;29;20090;-68
2021/12/02 14:49:11;;;;;;;1.10;1.10;;;;;;;3.47;95.03;97360.28;4935303;29;20039;-69
2021/12/02 14:52:03;;;;;;;0.60;0.60;;;;;;;3.39;95.68;97361.25;4934908;29;20067;-68
2021/12/02 14:54:32;;;;;;;0.55;0.55;;;;;;;3.47;96.27;97357.72;4935395;29;20023;-68
2021/12/02 14:56:59;;;;;;;;;;;;;;;3.42;95.19;97362.03;4935451;29;20110;-69
2021/12/02 14:59:35;;;;;;;0.80;0.80;;;;;;;3.33;95.71;97370.69;4935141;29;19949;-69
2021/12/02 15:02:03;;;;;;;0.82;0.82;;;;;;;3.26;95.48;97375.91;4935104;29;20027;-69
2021/12/02 15:04:32;;;;;;;0.73;0.73;;;;;;;3.25;97.13;97385.31;4935164;29;20028;-69
2021/12/02 15:07:16;;;;;;;0.77;0.77;;;;;;;3.21;95.91;97391.31;4934879;29;20362;-74
2021/12/02 15:10:11;;;;;;;4.78;1.00;;;;;;;3.16;95.90;97402.47;4927062;29;20366;-70
2021/12/02 15:12:39;;;;;;;0.70;0.70;;;;;;;3.26;95.86;97399.78;4935015;29;20038;-70
2021/12/02 15:15:04;;;;;;;2.08;1.40;;;;;;;3.10;97.00;97408.50;4934955;29;20023;-70
2021/12/02 15:17:34;;;;;;;0.55;0.55;;;;;;;3.16;97.91;97408.44;4934709;29;20032;-69
2021/12/02 15:20:10;;;;;;;0.70;0.70;;;;;;;3.21;97.96;97416.06;4934784;29;20036;-71
2021/12/02 15:22:36;;;;;;;0.70;0.70;;;;;;;3.30;97.49;97410.84;4933719;29;20031;-68
2021/12/02 15:25:26;;;;;;;2.28;2.15;;;;;;;3.16;97.37;97418.66;4934921;29;20028;-68
2021/12/02 15:27:59;;;;;;;0.88;0.88;;;;;;;3.29;95.85;97430.47;4929073;29;20067;-68
2021/12/02 15:30:26;;;;;;;3.83;2.03;;;;;;;3.41;94.55;97426.06;4934774;29;20042;-68
2021/12/02 15:32:52;;;;;;;0.75;0.75;;;;;;;3.22;95.41;97431.41;4934749;29;20024;-68
2021/12/02 15:35:18;;;;;;;0.98;0.98;;;;;;;3.38;94.87;97433.78;4934923;29;20075;-68
2021/12/02 15:37:44;;;;;;;0.85;0.85;;;;;;;3.26;95.61;97445.84;4931949;29;20028;-68
2021/12/02 15:40:10;;;;;;;1.13;0.93;;;;;;;3.13;96.75;97454.50;4929573;29;20131;-68
2021/12/02 15:42:36;;;;;;;0.50;0.50;;;;;;;2.60;97.37;97472.88;4934620;29;20119;-68
2021/12/02 15:45:06;;;;;;;0.60;0.60;;;;;;;2.21;96.62;97470.59;4934810;29;20032;-67
2021/12/02 15:47:32;;;;;;;0.50;0.50;;;;;;;2.10;97.01;97487.69;4934654;29;20028;-67
2021/12/02 15:50:03;;;;;;;0.60;0.60;;;;;;;1.71;97.18;97496.41;4934610;29;20040;-67
2021/12/02 15:52:32;;;;;;;1.05;1.05;;;;;;;1.82;97.89;97489.53;4934936;29;20028;-67
2021/12/02 15:55:01;;;;;;;0.45;0.45;;;;;;;1.75;97.75;97491.28;4934860;29;20020;-67
2021/12/02 15:57:27;;;;;;;0.60;0.60;;;;;;;1.90;97.91;97494.63;4934512;29;20044;-67
2021/12/02 15:59:53;;;;;;;0.60;0.60;;;;;;;1.70;97.22;97502.38;4934499;29;20632;-67
2021/12/02 16:05:34;;;;;;;0.80;0.80;;;;;;;1.74;97.99;97520.22;4938267;29;20028;-69
2021/12/02 16:07:37;;;;;;;0.50;0.50;;;;;;;1.58;98.17;97528.75;4930052;29;20050;-69
2021/12/02 16:10:20;;;;;;;0.80;0.80;;;;;;;1.80;98.48;97539.78;4919665;29;20024;-67
2021/12/02 16:12:46;;;;;;;0.60;0.60;;;;;;;1.88;98.70;97544.84;4919315;29;20378;-68
2021/12/02 16:15:17;;;;;;;0.50;0.50;;;;;;;1.96;99.26;97545.66;4919033;29;20035;-68
2021/12/02 16:17:43;;;;;;;0.70;0.70;;;;;;;1.91;98.45;97552.50;4919059;29;20137;-68
2021/12/02 16:20:15;;;;;;;1.95;0.90;;;;;;;2.00;99.07;97560.13;4918760;29;20035;-67